Time;durP1;ratioP1;P1;durP2;ratioP2;P2;SDS_P1;SDS_P2;PMS_P1;PMS_P2;Temp;Humidity;BMP_temperature;BMP_pressure;BME280_temperature;BME280_humidity;BME280_pressure;Samples;Min_cycle;Max_cycle;Signal;HPM_P1;HPM_P2
2021/04/18 00:00:22;;;;;;;4.05;2.38;;;7.90;72.10;;;;;;5114259;28;20102;-73
2021/04/18 00:02:49;;;;;;;4.82;2.30;;;7.90;72.10;;;;;;5113277;28;20042;-73
2021/04/18 00:05:16;;;;;;;4.68;2.38;;;7.90;72.10;;;;;;5095897;28;20020;-73
2021/04/18 00:07:42;;;;;;;5.10;2.50;;;7.90;71.70;;;;;;5112803;28;20046;-74
2021/04/18 00:10:09;;;;;;;5.70;2.53;;;7.90;72.20;;;;;;5114050;28;20444;-73
2021/04/18 00:12:35;;;;;;;4.03;2.27;;;7.90;72.10;;;;;;5114279;28;20020;-74
2021/04/18 00:15:02;;;;;;;4.90;2.40;;;7.90;72.00;;;;;;5095451;28;20053;-73
2021/04/18 00:17:28;;;;;;;3.72;2.20;;;7.90;71.70;;;;;;5094937;28;20035;-73
2021/04/18 00:19:53;;;;;;;3.28;2.08;;;7.90;71.60;;;;;;5113120;28;20024;-73
2021/04/18 00:22:19;;;;;;;3.97;2.20;;;7.90;71.70;;;;;;5113625;28;20027;-73
2021/04/18 00:24:45;;;;;;;4.05;2.22;;;7.90;72.00;;;;;;5094913;28;20034;-73
2021/04/18 00:27:10;;;;;;;3.33;2.30;;;7.90;72.10;;;;;;5095557;28;20016;-73
2021/04/18 00:29:36;;;;;;;5.55;2.20;;;7.90;72.50;;;;;;5094971;28;20024;-73
2021/04/18 00:32:02;;;;;;;4.78;2.70;;;7.90;72.60;;;;;;5095428;28;20478;-73
2021/04/18 00:34:27;;;;;;;6.03;3.20;;;7.90;72.00;;;;;;5095288;28;20429;-73
2021/04/18 00:36:54;;;;;;;5.30;2.75;;;7.90;72.00;;;;;;5094309;28;20089;-74
2021/04/18 00:39:19;;;;;;;3.95;2.22;;;7.90;72.20;;;;;;5095098;28;20028;-73
2021/04/18 00:41:45;;;;;;;5.65;2.90;;;8.00;72.20;;;;;;5094330;28;20027;-74
2021/04/18 00:44:11;;;;;;;4.70;2.80;;;8.00;72.20;;;;;;5113302;28;20027;-73
2021/04/18 00:46:40;;;;;;;5.70;2.50;;;8.00;71.70;;;;;;5094344;28;20077;-74
2021/04/18 00:49:06;;;;;;;4.93;2.65;;;8.00;72.10;;;;;;5095120;28;20058;-73
2021/04/18 00:51:33;;;;;;;5.93;2.83;;;8.00;72.30;;;;;;5094803;28;20112;-73
2021/04/18 00:53:58;;;;;;;4.30;2.65;;;8.00;72.10;;;;;;5112594;28;20049;-73
2021/04/18 00:56:24;;;;;;;5.00;2.55;;;8.00;72.50;;;;;;5112769;28;20027;-73
2021/04/18 00:58:50;;;;;;;3.72;2.38;;;8.00;72.60;;;;;;5094314;28;20027;-73
2021/04/18 01:01:16;;;;;;;4.97;2.50;;;7.90;72.40;;;;;;5113172;28;20016;-73
2021/04/18 01:03:42;;;;;;;4.18;2.10;;;7.80;72.80;;;;;;5094133;28;20452;-73
2021/04/18 01:06:07;;;;;;;4.88;2.30;;;7.90;73.00;;;;;;5094556;28;20027;-73
2021/04/18 01:08:33;;;;;;;4.65;2.70;;;7.80;73.70;;;;;;5094536;28;20102;-73
2021/04/18 01:10:59;;;;;;;5.45;2.40;;;7.80;73.80;;;;;;5094156;28;20029;-73
2021/04/18 01:13:25;;;;;;;7.15;2.47;;;7.90;73.80;;;;;;5094539;28;20065;-73
2021/04/18 01:15:51;;;;;;;4.70;2.47;;;7.80;74.10;;;;;;5093591;28;20027;-73
2021/04/18 01:18:17;;;;;;;4.32;2.42;;;7.80;74.10;;;;;;5112957;28;20030;-73
2021/04/18 01:20:42;;;;;;;4.82;2.70;;;7.90;73.60;;;;;;5093519;28;20020;-73
2021/04/18 01:23:08;;;;;;;4.28;2.38;;;7.90;73.20;;;;;;5094756;28;20114;-73
2021/04/18 01:25:40;;;;;;;3.90;2.40;;;7.90;73.30;;;;;;5094239;28;20397;-73
2021/04/18 01:28:06;;;;;;;7.78;2.78;;;7.90;73.40;;;;;;5094689;28;20027;-73
2021/04/18 01:30:33;;;;;;;4.88;2.58;;;7.90;73.60;;;;;;5094772;28;20418;-73
2021/04/18 01:33:01;;;;;;;4.05;2.45;;;7.90;74.40;;;;;;5112289;28;20304;-73
2021/04/18 01:35:27;;;;;;;6.50;2.83;;;7.90;74.50;;;;;;5112445;28;20038;-73
2021/04/18 01:37:53;;;;;;;4.65;2.63;;;7.90;74.10;;;;;;5112149;28;20036;-73
2021/04/18 01:40:21;;;;;;;5.00;3.00;;;8.00;74.00;;;;;;5094507;28;20027;-75
2021/04/18 01:42:48;;;;;;;3.97;2.50;;;7.90;74.30;;;;;;5112078;28;20043;-73
2021/04/18 01:45:16;;;;;;;4.38;2.42;;;8.00;74.10;;;;;;5094133;28;20061;-73
2021/04/18 01:47:42;;;;;;;5.55;3.10;;;7.90;74.30;;;;;;5111609;28;20032;-73
2021/04/18 01:50:11;;;;;;;4.68;2.58;;;8.00;74.50;;;;;;5094161;28;20110;-73
2021/04/18 01:52:37;;;;;;;4.15;2.72;;;8.00;74.50;;;;;;5094149;28;20089;-73
2021/04/18 01:55:04;;;;;;;4.53;2.63;;;8.00;74.50;;;;;;5093368;28;20024;-74
2021/04/18 01:57:31;;;;;;;4.97;3.10;;;7.90;74.60;;;;;;5094081;28;20024;-74
2021/04/18 01:59:57;;;;;;;5.15;2.92;;;8.00;74.60;;;;;;5093750;28;20030;-74
2021/04/18 02:02:23;;;;;;;5.38;3.25;;;7.90;74.40;;;;;;5112227;28;20019;-73
2021/04/18 02:04:48;;;;;;;7.75;3.25;;;7.90;75.00;;;;;;5093425;28;20038;-74
2021/04/18 02:07:14;;;;;;;6.22;3.20;;;7.90;75.20;;;;;;5094270;28;20058;-73
2021/04/18 02:09:40;;;;;;;6.55;3.38;;;7.90;75.30;;;;;;5112170;28;20054;-73
2021/04/18 02:12:08;;;;;;;6.22;3.10;;;7.90;75.30;;;;;;5093771;28;20031;-73
2021/04/18 02:14:35;;;;;;;7.53;2.90;;;7.90;75.30;;;;;;5092869;28;20027;-73
2021/04/18 02:17:01;;;;;;;6.57;3.08;;;7.90;75.50;;;;;;5110857;28;20273;-73
2021/04/18 02:19:28;;;;;;;6.45;2.85;;;8.00;75.80;;;;;;5111951;28;20043;-74
2021/04/18 02:21:54;;;;;;;4.55;3.05;;;8.00;75.40;;;;;;5093433;28;20051;-74
2021/04/18 02:24:19;;;;;;;4.13;2.57;;;8.00;75.30;;;;;;5112290;28;20110;-73
2021/04/18 02:26:45;;;;;;;4.03;2.53;;;7.90;76.00;;;;;;5093375;28;20532;-73
2021/04/18 02:29:11;;;;;;;5.38;2.70;;;8.10;75.40;;;;;;5093652;28;20031;-73
2021/04/18 02:31:36;;;;;;;6.20;3.20;;;8.10;75.00;;;;;;5113271;28;20016;-73
2021/04/18 02:34:02;;;;;;;4.50;2.80;;;8.00;75.20;;;;;;5115209;28;20038;-73
2021/04/18 02:36:28;;;;;;;5.28;2.90;;;8.00;75.50;;;;;;5097608;28;20030;-73
2021/04/18 02:38:53;;;;;;;4.85;3.10;;;8.00;75.80;;;;;;5096941;28;20026;-73
2021/04/18 02:41:19;;;;;;;5.82;2.67;;;7.90;75.70;;;;;;5097330;28;20036;-73
2021/04/18 02:43:45;;;;;;;5.97;2.95;;;8.00;75.70;;;;;;5114476;28;20088;-74
2021/04/18 02:46:11;;;;;;;4.60;2.72;;;8.00;75.80;;;;;;5115255;28;20031;-73
2021/04/18 02:48:36;;;;;;;7.05;3.13;;;8.00;76.10;;;;;;5115150;28;20464;-73
2021/04/18 02:51:02;;;;;;;4.95;2.85;;;8.00;76.30;;;;;;5114626;28;20067;-73
2021/04/18 02:53:29;;;;;;;4.63;2.75;;;8.00;76.30;;;;;;5096815;28;20110;-73
2021/04/18 02:55:54;;;;;;;6.78;2.90;;;7.90;76.50;;;;;;5096400;28;20051;-73
2021/04/18 02:58:20;;;;;;;4.97;2.78;;;7.90;77.00;;;;;;5115102;28;20070;-73
2021/04/18 03:00:46;;;;;;;4.78;2.90;;;7.80;77.30;;;;;;5114444;28;20020;-73
2021/04/18 03:03:11;;;;;;;6.53;3.05;;;7.80;77.40;;;;;;5097022;28;20519;-73
2021/04/18 03:05:38;;;;;;;6.00;3.13;;;7.90;77.50;;;;;;5096656;28;20020;-73
2021/04/18 03:08:04;;;;;;;5.13;2.67;;;8.00;77.10;;;;;;5096452;28;20119;-73
2021/04/18 03:10:29;;;;;;;5.47;2.75;;;7.90;77.20;;;;;;5115423;28;20023;-73
2021/04/18 03:12:55;;;;;;;5.65;2.90;;;7.90;77.30;;;;;;5096149;28;20076;-73
2021/04/18 03:15:21;;;;;;;5.63;3.00;;;7.90;77.30;;;;;;5096649;28;20046;-73
2021/04/18 03:17:47;;;;;;;6.22;3.00;;;7.80;77.50;;;;;;5096082;28;20436;-73
2021/04/18 03:20:14;;;;;;;6.32;2.70;;;7.80;77.40;;;;;;5096606;28;20115;-73
2021/04/18 03:22:40;;;;;;;7.25;3.03;;;8.00;77.30;;;;;;5091897;28;20020;-73
2021/04/18 03:25:06;;;;;;;5.57;2.80;;;7.90;77.50;;;;;;5103208;28;20416;-73
2021/04/18 03:27:32;;;;;;;6.78;3.03;;;8.00;77.70;;;;;;5104295;28;20091;-73
2021/04/18 03:29:58;;;;;;;8.05;3.47;;;8.00;77.60;;;;;;5101475;28;20114;-72
2021/04/18 03:32:24;;;;;;;4.75;2.90;;;7.90;77.80;;;;;;5086803;28;20405;-73
2021/04/18 03:34:49;;;;;;;5.63;3.00;;;7.80;78.10;;;;;;5104053;28;20338;-73
2021/04/18 03:37:15;;;;;;;6.45;3.30;;;7.80;78.20;;;;;;5099701;28;20032;-73
2021/04/18 03:39:41;;;;;;;4.60;2.88;;;7.80;78.20;;;;;;5099965;28;20096;-73
2021/04/18 03:42:07;;;;;;;6.60;3.08;;;7.70;78.30;;;;;;5085618;28;20077;-73
2021/04/18 03:44:34;;;;;;;5.40;2.90;;;7.80;78.30;;;;;;5087902;28;20504;-73
2021/04/18 03:46:59;;;;;;;5.80;2.90;;;7.80;78.30;;;;;;5083408;28;20144;-73
2021/04/18 03:49:25;;;;;;;6.20;3.40;;;7.80;77.60;;;;;;5086430;28;20166;-73
2021/04/18 03:51:50;;;;;;;7.30;3.20;;;7.80;77.10;;;;;;5104312;28;20110;-72
2021/04/18 03:54:18;;;;;;;5.03;2.90;;;7.80;77.40;;;;;;5106869;28;20089;-73
2021/04/18 03:56:43;;;;;;;6.30;3.20;;;7.70;77.00;;;;;;5084168;28;20022;-73
2021/04/18 03:59:10;;;;;;;9.98;3.25;;;7.60;77.00;;;;;;5103281;28;20039;-73
2021/04/18 04:01:36;;;;;;;4.72;2.70;;;7.60;77.00;;;;;;5104223;28;20322;-73
2021/04/18 04:04:01;;;;;;;4.20;2.88;;;7.60;77.00;;;;;;5085544;28;20024;-73
2021/04/18 04:06:27;;;;;;;6.40;2.92;;;7.60;76.90;;;;;;5085028;28;20019;-73
2021/04/18 04:08:53;;;;;;;3.53;2.40;;;7.70;76.70;;;;;;5090914;28;20432;-73
2021/04/18 04:11:18;;;;;;;5.80;2.78;;;7.70;76.40;;;;;;5086214;28;20024;-73
2021/04/18 04:13:44;;;;;;;5.57;3.08;;;7.60;76.70;;;;;;5107387;28;20024;-73
2021/04/18 04:16:09;;;;;;;5.90;3.28;;;7.60;76.70;;;;;;5101664;28;20467;-73
2021/04/18 04:18:35;;;;;;;6.75;3.10;;;7.50;76.60;;;;;;5086076;28;20074;-73
2021/04/18 04:21:01;;;;;;;4.90;2.67;;;7.50;76.80;;;;;;5103948;28;20019;-73
2021/04/18 04:23:26;;;;;;;7.03;3.15;;;7.50;76.70;;;;;;5107383;28;20058;-73
2021/04/18 04:25:52;;;;;;;5.17;2.97;;;7.50;76.80;;;;;;5101250;28;20015;-74
2021/04/18 04:28:18;;;;;;;5.97;2.92;;;7.50;76.60;;;;;;5103894;28;20464;-73
2021/04/18 04:30:43;;;;;;;4.30;2.77;;;7.50;76.50;;;;;;5085231;28;20019;-73
2021/04/18 04:33:09;;;;;;;4.50;2.70;;;7.40;76.50;;;;;;5104542;28;20452;-74
2021/04/18 04:35:39;;;;;;;5.27;3.50;;;7.40;76.90;;;;;;5083156;28;20044;-73
2021/04/18 04:38:04;;;;;;;7.80;4.07;;;7.40;76.70;;;;;;5103481;28;20100;-73
2021/04/18 04:40:30;;;;;;;6.30;3.43;;;7.30;76.80;;;;;;5104357;28;20046;-73
2021/04/18 04:42:55;;;;;;;5.13;3.30;;;7.40;76.90;;;;;;5101687;28;20486;-73
2021/04/18 04:45:21;;;;;;;7.13;3.53;;;7.40;77.00;;;;;;5085566;28;20024;-73
2021/04/18 04:47:47;;;;;;;7.17;3.70;;;7.30;77.00;;;;;;5104131;28;20024;-73
2021/04/18 04:50:13;;;;;;;6.33;3.50;;;7.30;77.20;;;;;;5083818;28;20039;-73
2021/04/18 04:52:39;;;;;;;7.60;3.57;;;7.30;77.20;;;;;;5085551;28;20040;-73
2021/04/18 04:55:05;;;;;;;6.30;3.70;;;7.30;77.30;;;;;;5084690;28;20038;-73
2021/04/18 04:57:30;;;;;;;6.97;3.63;;;7.30;77.70;;;;;;5083066;28;20026;-73
2021/04/18 04:59:56;;;;;;;6.03;3.23;;;7.30;77.30;;;;;;5100700;28;20102;-73
2021/04/18 05:02:21;;;;;;;5.57;3.60;;;7.20;77.50;;;;;;5104693;28;20054;-73
2021/04/18 05:04:47;;;;;;;6.60;3.03;;;7.20;77.50;;;;;;5086819;28;20020;-73
2021/04/18 05:07:13;;;;;;;6.90;3.60;;;7.30;77.60;;;;;;5082984;28;20065;-73
2021/04/18 05:09:39;;;;;;;6.50;3.50;;;7.30;77.40;;;;;;5090239;28;20070;-73
2021/04/18 05:12:05;;;;;;;6.13;3.33;;;7.30;77.50;;;;;;5089515;28;20019;-73
2021/04/18 05:14:31;;;;;;;5.17;3.33;;;7.30;77.40;;;;;;5087917;28;20118;-73
2021/04/18 05:16:56;;;;;;;9.50;4.07;;;7.40;77.60;;;;;;5105282;28;20102;-73
2021/04/18 05:19:22;;;;;;;7.10;3.60;;;7.50;77.40;;;;;;5083454;28;20338;-73
2021/04/18 05:21:48;;;;;;;7.93;3.87;;;7.50;77.50;;;;;;5084452;28;20069;-74
2021/04/18 05:24:13;;;;;;;6.37;3.83;;;7.40;77.60;;;;;;5081291;28;20013;-73
2021/04/18 05:26:39;;;;;;;8.10;4.20;;;7.40;77.70;;;;;;5081724;28;20023;-73
2021/04/18 05:29:05;;;;;;;7.57;3.77;;;7.40;77.40;;;;;;5082573;28;20031;-73
2021/04/18 05:31:31;;;;;;;8.07;4.27;;;7.50;77.40;;;;;;5085257;28;20019;-73
2021/04/18 05:33:57;;;;;;;8.53;4.37;;;7.50;77.50;;;;;;5079612;28;20028;-73
2021/04/18 05:36:23;;;;;;;7.83;4.53;;;7.50;77.40;;;;;;5106169;28;20031;-73
2021/04/18 05:38:48;;;;;;;7.17;3.93;;;7.50;77.70;;;;;;5112486;28;20016;-73
2021/04/18 05:41:14;;;;;;;6.63;4.00;;;7.60;77.40;;;;;;5111801;28;20050;-73
2021/04/18 05:43:39;;;;;;;7.00;4.20;;;7.60;77.00;;;;;;5112169;28;20081;-73
2021/04/18 05:46:05;;;;;;;6.50;4.13;;;7.60;77.30;;;;;;5090381;28;20093;-72
2021/04/18 05:48:31;;;;;;;7.77;4.10;;;7.60;77.40;;;;;;5112939;28;20360;-73
2021/04/18 05:50:56;;;;;;;7.47;4.70;;;7.60;77.40;;;;;;5092882;28;20090;-73
2021/04/18 05:53:22;;;;;;;8.40;4.17;;;7.50;77.70;;;;;;5094085;28;20030;-73
2021/04/18 05:55:48;;;;;;;6.57;4.07;;;7.50;78.30;;;;;;5093718;28;20118;-74
2021/04/18 05:58:16;;;;;;;6.65;4.32;;;7.60;78.30;;;;;;5111492;28;20027;-74
2021/04/18 06:00:41;;;;;;;11.57;6.30;;;7.60;78.00;;;;;;5094474;28;20031;-74
2021/04/18 06:03:07;;;;;;;9.53;5.57;;;7.60;77.40;;;;;;5111436;28;20020;-74
2021/04/18 06:05:33;;;;;;;7.63;4.47;;;7.60;77.70;;;;;;5112032;28;20411;-73
2021/04/18 06:07:58;;;;;;;7.75;4.78;;;7.60;77.70;;;;;;5097048;28;20019;-74
2021/04/18 06:10:24;;;;;;;7.90;4.03;;;7.70;77.10;;;;;;5097810;28;20020;-74
2021/04/18 06:12:50;;;;;;;14.88;5.80;;;7.80;77.10;;;;;;5097256;28;20073;-74
2021/04/18 06:15:15;;;;;;;7.65;4.60;;;7.80;76.60;;;;;;5096785;28;20460;-74
2021/04/18 06:17:41;;;;;;;10.70;6.30;;;7.80;76.40;;;;;;5115605;28;20016;-74
2021/04/18 06:20:07;;;;;;;13.17;7.07;;;7.80;76.50;;;;;;5096827;28;20074;-74
2021/04/18 06:22:34;;;;;;;11.33;4.50;;;7.80;77.00;;;;;;5097017;28;20081;-74
2021/04/18 06:25:00;;;;;;;8.23;4.68;;;7.90;76.30;;;;;;5096925;28;20472;-74
2021/04/18 06:27:26;;;;;;;6.70;4.18;;;8.00;75.50;;;;;;5096920;28;20384;-73
2021/04/18 06:29:52;;;;;;;13.60;6.97;;;8.00;75.40;;;;;;5115910;28;20461;-73
2021/04/18 06:32:17;;;;;;;9.52;4.80;;;8.00;75.50;;;;;;5114867;28;20077;-73
2021/04/18 06:34:43;;;;;;;8.13;4.28;;;8.00;76.00;;;;;;5096670;28;20031;-74
2021/04/18 06:37:09;;;;;;;6.60;3.88;;;8.00;76.10;;;;;;5097062;28;20030;-74
2021/04/18 06:39:35;;;;;;;6.72;4.20;;;8.00;76.40;;;;;;5097093;28;20368;-74
2021/04/18 06:42:04;;;;;;;8.23;4.20;;;8.10;76.10;;;;;;5114860;28;20030;-73
2021/04/18 06:44:30;;;;;;;6.20;4.20;;;8.10;75.40;;;;;;5096950;28;20483;-74
2021/04/18 06:46:58;;;;;;;6.55;4.10;;;8.20;74.80;;;;;;5114733;28;20035;-74
2021/04/18 06:49:26;;;;;;;6.88;4.10;;;8.30;74.70;;;;;;5115707;28;20469;-74
2021/04/18 06:51:52;;;;;;;8.77;4.40;;;8.30;74.50;;;;;;5115604;28;20046;-74
2021/04/18 06:54:19;;;;;;;9.25;4.45;;;8.40;74.10;;;;;;5096701;28;20104;-74
2021/04/18 06:56:45;;;;;;;5.18;3.63;;;8.40;74.40;;;;;;5096904;28;20027;-74
2021/04/18 06:59:11;;;;;;;7.28;4.70;;;8.50;73.80;;;;;;5115076;28;20012;-74
2021/04/18 07:01:37;;;;;;;7.38;4.22;;;8.60;72.90;;;;;;5115377;28;20190;-74
2021/04/18 07:04:11;;;;;;;6.88;4.07;;;8.60;72.80;;;;;;5096173;28;20023;-74
2021/04/18 07:06:45;;;;;;;6.55;3.70;;;8.70;71.60;;;;;;5114959;28;20011;-74
2021/04/18 07:09:12;;;;;;;6.07;4.07;;;8.70;71.30;;;;;;5093989;28;20034;-72
2021/04/18 07:11:50;;;;;;;9.48;4.35;;;8.70;72.40;;;;;;5096762;28;20050;-72
2021/04/18 07:14:20;;;;;;;9.43;4.35;;;8.70;72.50;;;;;;5095971;28;20051;-73
2021/04/18 07:16:45;;;;;;;6.07;3.25;;;8.70;72.20;;;;;;5115229;28;20094;-73
2021/04/18 07:19:25;;;;;;;6.90;3.42;;;8.80;71.60;;;;;;5094101;28;20058;-72
2021/04/18 07:21:54;;;;;;;5.30;3.17;;;8.80;71.10;;;;;;5095143;28;20020;-73
2021/04/18 07:24:21;;;;;;;8.05;3.25;;;8.80;70.80;;;;;;5114384;28;20019;-73
2021/04/18 07:26:58;;;;;;;11.93;5.18;;;8.90;70.70;;;;;;5095636;28;20026;-73
2021/04/18 07:29:25;;;;;;;14.73;7.15;;;9.00;70.60;;;;;;5114890;28;20022;-73
2021/04/18 07:31:52;;;;;;;11.13;5.90;;;9.10;69.20;;;;;;5114511;28;20023;-73
2021/04/18 07:34:20;;;;;;;8.95;3.85;;;9.10;69.10;;;;;;5095493;28;20026;-73
2021/04/18 07:36:47;;;;;;;5.40;3.50;;;9.20;68.70;;;;;;5095912;28;20368;-73
2021/04/18 07:39:15;;;;;;;6.53;3.17;;;9.40;69.10;;;;;;5113364;28;20029;-73
2021/04/18 07:41:53;;;;;;;4.47;3.05;;;9.40;68.00;;;;;;5095583;28;20059;-73
2021/04/18 07:44:19;;;;;;;4.78;3.10;;;9.50;66.80;;;;;;5095655;28;20114;-73
2021/04/18 07:46:47;;;;;;;5.43;3.05;;;9.50;66.80;;;;;;5095501;28;20027;-73
2021/04/18 07:49:14;;;;;;;4.88;3.20;;;9.60;66.90;;;;;;5090997;28;20024;-73
2021/04/18 07:51:43;;;;;;;7.00;3.20;;;9.60;66.70;;;;;;5109321;28;20051;-73
2021/04/18 07:54:10;;;;;;;6.18;2.88;;;9.70;66.70;;;;;;5094920;28;20027;-73
2021/04/18 07:56:36;;;;;;;4.63;3.00;;;9.70;65.50;;;;;;5113150;28;20048;-73
2021/04/18 07:59:02;;;;;;;3.58;2.30;;;9.80;65.80;;;;;;5094682;28;20055;-73
2021/04/18 08:01:28;;;;;;;4.05;2.40;;;9.80;65.30;;;;;;5095328;28;20464;-73
2021/04/18 08:03:55;;;;;;;3.83;2.47;;;9.80;65.00;;;;;;5094549;28;20019;-73
2021/04/18 08:06:25;;;;;;;4.75;2.60;;;9.80;63.70;;;;;;5110206;28;20099;-73
2021/04/18 08:08:52;;;;;;;5.35;2.63;;;9.90;62.50;;;;;;5091707;28;20019;-73
2021/04/18 08:11:21;;;;;;;5.70;3.20;;;10.00;62.20;;;;;;5094183;28;20191;-73
2021/04/18 08:13:49;;;;;;;8.38;2.70;;;10.10;61.70;;;;;;5094431;28;20030;-72
2021/04/18 08:16:32;;;;;;;5.65;3.30;;;10.10;61.10;;;;;;5093959;28;20118;-73
2021/04/18 08:19:06;;;;;;;4.30;2.92;;;10.20;61.50;;;;;;5110568;28;20055;-73
2021/04/18 08:21:36;;;;;;;5.07;2.65;;;10.20;62.40;;;;;;5095352;28;20019;-73
2021/04/18 08:24:06;;;;;;;5.30;2.80;;;10.20;61.50;;;;;;5076266;28;20020;-73
2021/04/18 08:26:34;;;;;;;4.25;2.75;;;10.20;61.50;;;;;;5111607;28;20069;-73
2021/04/18 08:29:03;;;;;;;5.68;2.85;;;10.20;61.50;;;;;;5112135;28;20028;-73
2021/04/18 08:31:52;;;;;;;5.03;2.72;;;10.30;61.00;;;;;;5081939;28;20212;-73
2021/04/18 08:34:38;;;;;;;5.40;2.65;;;10.20;61.20;;;;;;5090124;28;20026;-73
2021/04/18 08:37:12;;;;;;;5.93;2.97;;;10.40;63.20;;;;;;5088675;28;20048;-73
2021/04/18 08:39:40;;;;;;;7.63;2.83;;;10.40;60.90;;;;;;5082831;28;20070;-73
2021/04/18 08:42:07;;;;;;;5.43;3.00;;;10.40;61.10;;;;;;5100970;28;20097;-74
2021/04/18 08:44:39;;;;;;;6.38;3.00;;;10.40;60.90;;;;;;5088032;28;20114;-75
2021/04/18 08:47:11;;;;;;;5.30;2.78;;;10.40;60.30;;;;;;5084762;28;20016;-74
2021/04/18 08:49:45;;;;;;;5.28;3.17;;;10.40;60.10;;;;;;5108341;28;20070;-75
2021/04/18 08:52:31;;;;;;;5.97;3.10;;;10.40;60.40;;;;;;5105510;28;20049;-75
2021/04/18 08:55:01;;;;;;;37.05;18.05;;;10.30;60.40;;;;;;5105367;28;20027;-75
2021/04/18 08:57:29;;;;;;;7.75;4.78;;;10.30;60.70;;;;;;5090063;28;20118;-75
2021/04/18 08:59:57;;;;;;;5.95;3.55;;;10.40;60.70;;;;;;5093236;28;20134;-74
2021/04/18 09:02:24;;;;;;;5.55;3.35;;;10.40;60.50;;;;;;5094596;28;20541;-75
2021/04/18 09:04:53;;;;;;;5.68;2.78;;;10.40;60.10;;;;;;5089495;28;20082;-75
2021/04/18 09:07:21;;;;;;;5.72;3.15;;;10.40;60.10;;;;;;5099987;28;20306;-75
2021/04/18 09:09:49;;;;;;;5.20;2.75;;;10.40;60.50;;;;;;5091908;28;20035;-76
2021/04/18 09:12:17;;;;;;;4.72;2.83;;;10.40;60.00;;;;;;5086233;28;20038;-77
2021/04/18 09:14:45;;;;;;;6.93;2.78;;;10.40;59.50;;;;;;5102248;28;20036;-76
2021/04/18 09:17:18;;;;;;;6.55;3.13;;;10.40;60.10;;;;;;5083418;28;20023;-75
2021/04/18 09:19:48;;;;;;;6.53;3.28;;;10.50;59.40;;;;;;5101137;28;20457;-76
2021/04/18 09:22:26;;;;;;;6.03;2.70;;;10.50;59.10;;;;;;5084431;28;20433;-75
2021/04/18 09:24:54;;;;;;;6.38;3.40;;;10.60;59.00;;;;;;5078322;28;20035;-76
2021/04/18 09:27:25;;;;;;;7.70;3.03;;;10.70;58.80;;;;;;5101197;28;20016;-76
2021/04/18 09:29:55;;;;;;;7.97;4.28;;;10.70;58.30;;;;;;5088574;28;20031;-75
2021/04/18 09:32:28;;;;;;;18.17;9.45;;;10.70;58.10;;;;;;5085472;28;20345;-76
2021/04/18 09:34:54;;;;;;;10.13;5.30;;;10.60;58.50;;;;;;5102034;28;20055;-75
2021/04/18 09:37:31;;;;;;;6.68;3.50;;;10.60;58.60;;;;;;5107680;28;20511;-75
2021/04/18 09:40:02;;;;;;;6.57;3.00;;;10.50;58.50;;;;;;5083383;28;20062;-75
2021/04/18 09:42:31;;;;;;;6.20;2.92;;;10.50;58.50;;;;;;5102915;28;20015;-75
2021/04/18 09:45:18;;;;;;;7.40;3.55;;;10.60;58.70;;;;;;5089508;28;20062;-76
2021/04/18 09:47:50;;;;;;;5.68;2.95;;;10.70;58.20;;;;;;5112604;28;20352;-75
2021/04/18 09:50:23;;;;;;;5.50;2.80;;;10.70;58.60;;;;;;5092902;28;20028;-79
2021/04/18 09:52:50;;;;;;;5.43;3.22;;;10.70;58.30;;;;;;5096679;28;20096;-75
2021/04/18 09:55:25;;;;;;;10.40;3.33;;;10.80;60.00;;;;;;5093853;28;20061;-75
2021/04/18 09:57:57;;;;;;;5.30;2.80;;;10.80;59.60;;;;;;5095295;28;20035;-74
2021/04/18 10:00:29;;;;;;;6.15;2.88;;;10.90;59.60;;;;;;5114015;28;20016;-78
2021/04/18 10:03:11;;;;;;;5.97;3.20;;;10.90;60.00;;;;;;5114905;28;20023;-78
2021/04/18 10:05:46;;;;;;;;;;;10.90;58.90;;;;;;5089791;28;20031;-78
2021/04/18 10:08:25;;;;;;;9.77;3.22;;;11.00;58.60;;;;;;5095500;28;20004;-78
2021/04/18 10:10:54;;;;;;;8.10;3.88;;;11.10;59.90;;;;;;5093073;28;20020;-79
2021/04/18 10:13:41;;;;;;;7.88;3.60;;;11.10;57.90;;;;;;5093423;28;20387;-85
2021/04/18 10:16:09;;;;;;;6.80;3.70;;;11.10;57.30;;;;;;5093195;28;20066;-79
2021/04/18 10:18:38;;;;;;;6.43;3.17;;;11.30;57.20;;;;;;5097605;28;20055;-79
2021/04/18 10:21:33;;;;;;;7.50;3.35;;;11.30;55.70;;;;;;5096674;28;20032;-80
2021/04/18 10:23:59;;;;;;;9.02;3.22;;;11.40;54.60;;;;;;5071120;28;20035;-77
2021/04/18 10:26:25;;;;;;;6.55;3.15;;;11.30;56.00;;;;;;5096300;28;20353;-78
2021/04/18 10:28:53;;;;;;;8.43;3.53;;;11.30;55.90;;;;;;5096239;28;20066;-76
2021/04/18 10:31:23;;;;;;;5.50;2.97;;;11.30;56.40;;;;;;5093416;28;20070;-77
2021/04/18 10:33:49;;;;;;;7.72;3.63;;;11.30;55.30;;;;;;5076667;28;20355;-77
2021/04/18 10:36:15;;;;;;;5.68;2.95;;;11.20;54.50;;;;;;5086624;28;20126;-79
2021/04/18 10:38:43;;;;;;;8.75;3.60;;;11.20;54.40;;;;;;5090547;28;20023;-79
2021/04/18 10:41:08;;;;;;;8.43;4.22;;;11.20;54.60;;;;;;5096577;28;20027;-80
2021/04/18 10:43:35;;;;;;;6.95;3.78;;;11.20;54.20;;;;;;5114603;28;20368;-80
2021/04/18 10:46:02;;;;;;;8.68;3.70;;;11.00;54.80;;;;;;5114809;28;20125;-82
2021/04/18 10:48:28;;;;;;;8.75;3.88;;;11.00;54.10;;;;;;5085174;28;20498;-78
2021/04/18 10:50:53;;;;;;;10.40;4.05;;;10.90;54.40;;;;;;5109995;28;20048;-79
2021/04/18 10:53:20;;;;;;;7.18;3.75;;;10.90;54.90;;;;;;5097671;28;20026;-79
2021/04/18 10:55:47;;;;;;;8.63;3.85;;;10.90;54.60;;;;;;5090693;28;20020;-79
2021/04/18 10:58:14;;;;;;;8.55;3.75;;;10.90;55.30;;;;;;5091354;28;20070;-79
2021/04/18 11:00:41;;;;;;;9.25;3.85;;;10.90;55.30;;;;;;5096771;28;20584;-79
2021/04/18 11:03:07;;;;;;;6.78;3.28;;;11.00;56.00;;;;;;5084428;28;20068;-80
2021/04/18 11:05:32;;;;;;;8.57;3.72;;;11.10;56.60;;;;;;5092307;28;20027;-79
2021/04/18 11:07:59;;;;;;;7.13;3.72;;;11.10;55.70;;;;;;5090053;28;20031;-80
2021/04/18 11:10:25;;;;;;;6.45;3.78;;;11.10;55.80;;;;;;5096208;28;20027;-79
2021/04/18 11:12:52;;;;;;;10.70;4.32;;;11.10;56.50;;;;;;5096974;28;20031;-79
2021/04/18 11:15:18;;;;;;;9.25;4.57;;;11.20;56.10;;;;;;5111885;28;20031;-80
2021/04/18 11:17:44;;;;;;;6.72;3.65;;;11.20;57.20;;;;;;5089354;28;20035;-78
2021/04/18 11:20:14;;;;;;;6.88;3.90;;;11.20;56.60;;;;;;5114195;28;20062;-79
2021/04/18 11:22:40;;;;;;;9.50;3.95;;;11.30;55.60;;;;;;5096870;28;20031;-80
2021/04/18 11:25:08;;;;;;;9.70;4.75;;;11.20;57.00;;;;;;5090857;28;20028;-78
2021/04/18 11:27:40;;;;;;;10.55;4.25;;;11.30;56.70;;;;;;5093142;28;20031;-79
2021/04/18 11:30:14;;;;;;;8.88;4.22;;;11.50;56.90;;;;;;5094821;28;20573;-79
2021/04/18 11:32:40;;;;;;;8.65;4.30;;;11.50;56.70;;;;;;5085006;28;20126;-82
2021/04/18 11:35:09;;;;;;;11.38;4.15;;;11.70;56.60;;;;;;5094711;28;20036;-80
2021/04/18 11:37:36;;;;;;;8.38;4.38;;;11.80;56.30;;;;;;5094208;28;20039;-79
2021/04/18 11:40:05;;;;;;;7.65;4.22;;;11.90;57.00;;;;;;5087445;28;20019;-88
2021/04/18 11:42:32;;;;;;;9.90;4.65;;;11.80;57.10;;;;;;5114015;28;20068;-78
2021/04/18 11:45:00;;;;;;;9.38;4.40;;;11.90;57.30;;;;;;5091926;28;20460;-81
2021/04/18 11:47:28;;;;;;;8.70;4.28;;;11.90;56.50;;;;;;5090547;28;20129;-82
2021/04/18 11:49:54;;;;;;;9.18;4.43;;;11.80;56.30;;;;;;5112800;28;20106;-79
2021/04/18 11:52:21;;;;;;;10.95;4.88;;;11.80;56.70;;;;;;5091313;28;20134;-81
2021/04/18 11:54:47;;;;;;;8.00;3.97;;;11.80;56.70;;;;;;5092535;28;20111;-79
2021/04/18 11:57:12;;;;;;;9.40;4.63;;;11.90;57.30;;;;;;5092943;28;20515;-81
2021/04/18 11:59:38;;;;;;;7.70;3.97;;;12.00;57.60;;;;;;5114000;28;20043;-82
2021/04/18 12:02:06;;;;;;;11.07;4.25;;;12.10;57.00;;;;;;5112320;28;20444;-82
2021/04/18 12:04:31;;;;;;;10.25;4.45;;;12.20;56.30;;;;;;5094316;28;20557;-81
2021/04/18 12:06:57;;;;;;;11.35;4.35;;;12.30;56.40;;;;;;5094952;28;20102;-81
2021/04/18 12:09:25;;;;;;;9.93;4.78;;;12.40;57.00;;;;;;5094588;28;20039;-81
2021/04/18 12:11:51;;;;;;;8.80;4.38;;;12.50;56.10;;;;;;5069353;28;20040;-77
2021/04/18 12:14:16;;;;;;;9.88;4.70;;;12.70;55.40;;;;;;5111944;28;20525;-77
2021/04/18 12:16:42;;;;;;;9.50;4.63;;;12.70;54.30;;;;;;5072646;28;20484;-82
2021/04/18 12:19:07;;;;;;;10.57;4.75;;;12.80;54.50;;;;;;5094049;28;20020;-78
2021/04/18 12:21:33;;;;;;;8.43;4.68;;;13.00;55.60;;;;;;5070212;28;20031;-78
2021/04/18 12:23:59;;;;;;;8.43;4.60;;;13.10;54.60;;;;;;5093488;28;20112;-78
2021/04/18 12:26:25;;;;;;;10.60;5.65;;;13.10;54.00;;;;;;5093674;28;20027;-80
2021/04/18 12:28:51;;;;;;;9.57;5.07;;;13.20;52.80;;;;;;5074133;28;20069;-78
2021/04/18 12:31:19;;;;;;;10.88;5.63;;;13.30;52.50;;;;;;5092679;28;20049;-81
2021/04/18 12:33:45;;;;;;;11.98;5.38;;;13.30;53.70;;;;;;5068855;28;20035;-79
2021/04/18 12:36:12;;;;;;;9.18;4.82;;;13.30;54.00;;;;;;5083880;28;20032;-79
2021/04/18 12:38:39;;;;;;;12.05;5.65;;;13.30;53.40;;;;;;5069631;28;20490;-79
2021/04/18 12:41:05;;;;;;;10.48;5.25;;;13.40;54.50;;;;;;5112313;28;20019;-77
2021/04/18 12:43:35;;;;;;;11.07;5.43;;;13.50;52.30;;;;;;5067351;28;20418;-78
2021/04/18 12:46:01;;;;;;;11.38;5.38;;;13.60;51.60;;;;;;5094109;28;20114;-78
2021/04/18 12:48:27;;;;;;;13.10;5.80;;;13.80;52.20;;;;;;5093698;28;20027;-78
2021/04/18 12:50:53;;;;;;;11.35;5.32;;;13.90;52.40;;;;;;5112704;28;20043;-78
2021/04/18 12:53:20;;;;;;;12.05;5.00;;;14.10;51.80;;;;;;5103496;28;20027;-79